createdAt,value
2017-12-06T00:00:03.231Z,29.20
2017-12-06T00:02:29.521Z,22.62
2017-12-06T00:04:56.709Z,22.83
2017-12-06T00:07:22.971Z,26.15
2017-12-06T00:09:49.975Z,22.35
2017-12-06T00:12:22.231Z,27.10
2017-12-06T00:14:54.581Z,24.77
2017-12-06T00:17:20.841Z,21.65
2017-12-06T00:19:47.111Z,23.62
2017-12-06T00:22:14.163Z,20.02
2017-12-06T00:24:41.215Z,22.85
2017-12-06T00:27:07.500Z,23.10
2017-12-06T00:29:33.770Z,21.15
2017-12-06T00:32:00.020Z,23.58
2017-12-06T00:34:26.299Z,21.55
2017-12-06T00:36:53.313Z,21.55
2017-12-06T00:39:20.751Z,20.17
2017-12-06T00:41:46.990Z,24.92
2017-12-06T00:44:13.270Z,25.02
2017-12-06T00:46:40.306Z,21.95
2017-12-06T00:49:07.301Z,22.02
2017-12-06T00:51:33.504Z,20.92
2017-12-06T00:53:59.763Z,21.60
2017-12-06T00:56:26.046Z,20.77
2017-12-06T00:58:52.316Z,21.60
2017-12-06T01:01:18.597Z,20.12
2017-12-06T01:03:45.589Z,27.55
2017-12-06T01:06:11.859Z,20.08
2017-12-06T01:08:38.994Z,22.42
2017-12-06T01:11:05.256Z,21.77
2017-12-06T01:13:31.508Z,21.48
2017-12-06T01:15:58.096Z,26.50
2017-12-06T01:18:25.103Z,19.10
2017-12-06T01:20:51.394Z,21.12
2017-12-06T01:23:20.051Z,22.60
2017-12-06T01:25:47.058Z,23.85
2017-12-06T01:28:13.327Z,20.65
2017-12-06T01:30:40.585Z,18.67
2017-12-06T01:33:06.852Z,17.08
2017-12-06T01:35:33.121Z,26.62
2017-12-06T01:38:00.138Z,19.95
2017-12-06T01:40:26.458Z,20.08
2017-12-06T01:42:52.736Z,20.45
2017-12-06T01:45:19.744Z,17.55
2017-12-06T01:47:45.984Z,19.98
2017-12-06T01:50:12.308Z,23.20
2017-12-06T01:52:38.609Z,25.17
2017-12-06T01:55:04.885Z,17.73
2017-12-06T01:57:31.950Z,19.27
2017-12-06T01:59:58.207Z,20.25
2017-12-06T02:02:24.494Z,22.27
2017-12-06T02:04:51.509Z,22.60
2017-12-06T02:07:17.769Z,20.00
2017-12-06T02:09:44.801Z,22.52
2017-12-06T02:12:11.831Z,17.80
2017-12-06T02:14:38.123Z,18.37
2017-12-06T02:17:04.417Z,16.37
2017-12-06T02:19:31.438Z,16.65
2017-12-06T02:21:58.104Z,18.10
2017-12-06T02:24:24.378Z,19.70
2017-12-06T02:26:50.693Z,22.15
2017-12-06T02:29:17.070Z,21.37
2017-12-06T02:31:44.071Z,18.65
2017-12-06T02:34:10.331Z,23.15
2017-12-06T02:36:36.638Z,22.33
2017-12-06T02:39:02.993Z,20.30
2017-12-06T02:41:42.350Z,22.33
2017-12-06T02:44:20.853Z,22.23
2017-12-06T02:46:47.867Z,16.17
2017-12-06T02:49:14.141Z,28.33
2017-12-06T02:51:40.450Z,21.27
2017-12-06T02:54:07.483Z,20.08
2017-12-06T02:56:33.767Z,20.25
2017-12-06T02:59:00.015Z,22.77
2017-12-06T03:01:26.316Z,28.70
2017-12-06T03:03:52.579Z,22.48
2017-12-06T03:06:18.892Z,30.85
2017-12-06T03:08:45.150Z,22.73
2017-12-06T03:11:11.421Z,23.70
2017-12-06T03:13:37.670Z,23.50
2017-12-06T03:16:03.918Z,18.10
2017-12-06T03:18:30.147Z,18.70
2017-12-06T03:20:56.390Z,21.17
2017-12-06T03:23:22.662Z,22.02
2017-12-06T03:25:48.987Z,27.17
2017-12-06T03:28:15.250Z,21.10
2017-12-06T03:30:42.707Z,36.13
2017-12-06T03:33:10.172Z,25.30
2017-12-06T03:35:37.319Z,22.33
2017-12-06T03:38:05.822Z,19.42
2017-12-06T03:40:32.995Z,20.25
2017-12-06T03:43:00.222Z,24.33
2017-12-06T03:45:26.529Z,23.15
2017-12-06T03:47:52.792Z,23.10
2017-12-06T03:50:19.059Z,25.42
2017-12-06T03:52:45.337Z,24.37
2017-12-06T03:55:12.347Z,21.62
2017-12-06T03:57:38.613Z,24.85
2017-12-06T04:00:05.608Z,23.27
2017-12-06T04:02:31.853Z,19.83
2017-12-06T04:04:58.156Z,20.50
2017-12-06T04:07:24.415Z,21.10
2017-12-06T04:09:50.657Z,21.37
2017-12-06T04:12:17.680Z,25.52
2017-12-06T04:14:43.929Z,21.60
2017-12-06T04:17:10.964Z,28.05
2017-12-06T04:19:37.226Z,22.17
2017-12-06T04:22:03.505Z,18.42
2017-12-06T04:24:29.767Z,21.15
2017-12-06T04:26:56.071Z,23.60
2017-12-06T04:29:22.315Z,38.97
2017-12-06T04:31:49.299Z,37.20
2017-12-06T04:34:15.553Z,29.70
2017-12-06T04:36:41.828Z,23.95
2017-12-06T04:39:08.446Z,15.18
2017-12-06T04:41:35.477Z,15.23
2017-12-06T04:44:01.780Z,20.98
2017-12-06T04:46:28.088Z,21.58
2017-12-06T04:48:54.359Z,18.35
2017-12-06T04:51:20.665Z,17.60
2017-12-06T04:53:49.890Z,15.27
2017-12-06T04:56:16.692Z,16.42
2017-12-06T04:58:42.954Z,16.92
2017-12-06T05:01:09.388Z,20.50
2017-12-06T05:03:35.813Z,18.25
2017-12-06T05:06:02.102Z,19.17
2017-12-06T05:08:28.354Z,14.73
2017-12-06T05:10:55.610Z,18.85
2017-12-06T05:13:21.925Z,19.17
2017-12-06T05:15:48.161Z,13.80
2017-12-06T05:18:14.425Z,21.65
2017-12-06T05:20:41.396Z,23.15
2017-12-06T05:23:08.454Z,22.40
2017-12-06T05:25:34.754Z,19.87
2017-12-06T05:28:00.993Z,19.05
2017-12-06T05:30:27.291Z,20.42
2017-12-06T05:32:53.552Z,16.33
2017-12-06T05:35:19.807Z,16.58
2017-12-06T05:37:46.078Z,19.20
2017-12-06T05:40:13.125Z,17.35
2017-12-06T05:42:40.147Z,21.98
2017-12-06T05:45:06.402Z,21.12
2017-12-06T05:47:33.409Z,24.27
2017-12-06T05:49:59.660Z,24.40
2017-12-06T05:52:26.664Z,21.15
2017-12-06T05:54:52.932Z,17.95
2017-12-06T05:57:19.939Z,19.08
2017-12-06T05:59:46.164Z,24.00
2017-12-06T06:02:12.457Z,19.10
2017-12-06T06:04:38.679Z,18.52
2017-12-06T06:07:04.924Z,23.67
2017-12-06T06:09:31.210Z,27.33
2017-12-06T06:11:57.489Z,17.20
2017-12-06T06:14:24.140Z,19.98
2017-12-06T06:16:50.705Z,26.73
2017-12-06T06:19:16.947Z,23.30
2017-12-06T06:21:43.953Z,21.62
2017-12-06T06:24:10.200Z,23.27
2017-12-06T06:26:36.515Z,21.05
2017-12-06T06:29:02.805Z,23.20
2017-12-06T06:31:29.053Z,20.58
2017-12-06T06:33:56.071Z,22.70
2017-12-06T06:36:22.337Z,22.05
2017-12-06T06:38:48.597Z,23.55
2017-12-06T06:41:15.641Z,19.70
2017-12-06T06:43:42.664Z,21.87
2017-12-06T06:46:08.932Z,24.27
2017-12-06T06:48:35.940Z,20.40
2017-12-06T06:51:02.203Z,22.00
2017-12-06T06:53:29.213Z,24.85
2017-12-06T06:55:55.517Z,28.42
2017-12-06T06:58:21.780Z,21.42
2017-12-06T07:00:48.775Z,21.95
2017-12-06T07:03:15.029Z,23.90
2017-12-06T07:05:41.296Z,21.90
2017-12-06T07:08:08.299Z,25.85
2017-12-06T07:10:34.552Z,20.42
2017-12-06T07:13:00.819Z,22.45
2017-12-06T07:15:27.087Z,27.73
2017-12-06T07:17:53.349Z,26.27
2017-12-06T07:20:20.366Z,30.80
2017-12-06T07:22:46.609Z,27.17
2017-12-06T07:25:12.922Z,24.45
2017-12-06T07:27:39.217Z,21.48
2017-12-06T07:30:05.519Z,21.75
2017-12-06T07:32:31.782Z,24.20
2017-12-06T07:34:58.104Z,20.88
2017-12-06T07:37:24.439Z,17.33
2017-12-06T07:39:50.799Z,19.75
2017-12-06T07:42:17.107Z,20.25
2017-12-06T07:44:43.416Z,24.48
2017-12-06T07:47:09.662Z,21.65
2017-12-06T07:49:36.197Z,22.20
2017-12-06T07:52:02.438Z,23.20
2017-12-06T07:54:28.701Z,19.25
2017-12-06T07:56:55.719Z,21.52
2017-12-06T07:59:21.990Z,19.05
2017-12-06T08:01:48.970Z,20.30
2017-12-06T08:04:15.269Z,15.60
2017-12-06T08:06:41.546Z,24.37
2017-12-06T08:09:07.838Z,23.05
2017-12-06T08:11:34.089Z,19.65
2017-12-06T08:14:00.345Z,17.48
2017-12-06T08:16:27.713Z,17.85
2017-12-06T08:18:54.167Z,23.25
2017-12-06T08:21:20.465Z,16.40
2017-12-06T08:23:47.592Z,24.30
2017-12-06T08:26:14.240Z,17.42
2017-12-06T08:28:40.541Z,24.95
2017-12-06T08:31:06.821Z,25.85
2017-12-06T08:33:33.114Z,21.08
2017-12-06T08:35:59.408Z,23.42
2017-12-06T08:38:25.772Z,19.77
2017-12-06T08:40:52.027Z,24.12
2017-12-06T08:43:18.331Z,25.83
2017-12-06T08:45:44.630Z,22.17
2017-12-06T08:48:10.886Z,21.92
2017-12-06T08:50:37.979Z,22.33
2017-12-06T08:53:04.246Z,18.87
2017-12-06T08:55:30.458Z,20.02
2017-12-06T08:57:56.760Z,21.10
2017-12-06T09:00:23.068Z,19.33
2017-12-06T09:02:49.345Z,19.60
2017-12-06T09:05:15.643Z,23.05
2017-12-06T09:07:41.849Z,16.40
2017-12-06T09:10:08.153Z,19.75
2017-12-06T09:12:35.495Z,23.90
2017-12-06T09:15:01.774Z,19.20
2017-12-06T09:17:28.064Z,15.73
2017-12-06T09:19:54.337Z,18.33
2017-12-06T09:22:20.637Z,16.55
2017-12-06T09:24:47.669Z,19.42
2017-12-06T09:27:14.690Z,30.35
2017-12-06T09:29:40.965Z,24.30
2017-12-06T09:32:07.246Z,24.20
2017-12-06T09:34:33.562Z,18.92
2017-12-06T09:37:00.643Z,22.85
2017-12-06T09:39:27.774Z,19.83
2017-12-06T09:41:54.064Z,21.25
2017-12-06T09:44:20.368Z,23.98
2017-12-06T09:46:46.622Z,22.27
2017-12-06T09:49:12.841Z,18.83
2017-12-06T09:51:39.160Z,23.75
2017-12-06T09:54:05.478Z,26.52
2017-12-06T09:56:31.741Z,25.55
2017-12-06T09:58:58.027Z,21.55
2017-12-06T10:01:25.049Z,19.30
2017-12-06T10:03:51.340Z,65.97
2017-12-06T10:06:17.569Z,24.90
2017-12-06T10:08:43.828Z,22.10
2017-12-06T10:11:10.140Z,23.15
2017-12-06T10:13:36.404Z,20.95
2017-12-06T10:16:03.433Z,18.27
2017-12-06T10:18:29.724Z,23.05
2017-12-06T10:20:55.996Z,24.65
2017-12-06T10:23:23.076Z,22.02
2017-12-06T10:25:49.354Z,19.10
2017-12-06T10:28:15.690Z,23.50
2017-12-06T10:30:42.766Z,25.12
2017-12-06T10:33:09.062Z,22.02
2017-12-06T10:35:35.378Z,17.33
2017-12-06T10:38:02.064Z,20.92
2017-12-06T10:40:28.407Z,24.70
2017-12-06T10:42:54.705Z,26.27
2017-12-06T10:45:21.705Z,25.05
2017-12-06T10:47:47.966Z,21.65
2017-12-06T10:50:14.303Z,23.48
2017-12-06T10:52:41.317Z,19.05
2017-12-06T10:55:07.567Z,19.55
2017-12-06T10:57:33.835Z,21.85
2017-12-06T11:00:00.094Z,19.08
2017-12-06T11:02:26.367Z,26.70
2017-12-06T11:04:53.369Z,20.52
2017-12-06T11:07:19.595Z,20.92
2017-12-06T11:09:45.857Z,20.25
2017-12-06T11:12:12.862Z,22.60
2017-12-06T11:14:39.142Z,23.27
2017-12-06T11:17:06.161Z,19.85
2017-12-06T11:19:32.419Z,25.58
2017-12-06T11:21:58.653Z,23.75
2017-12-06T11:24:25.294Z,24.55
2017-12-06T11:26:51.577Z,25.73
2017-12-06T11:29:17.848Z,22.62
2017-12-06T11:31:44.136Z,24.40
2017-12-06T11:34:10.409Z,25.45
2017-12-06T11:36:36.616Z,26.58
2017-12-06T11:39:03.132Z,29.33
2017-12-06T11:41:30.100Z,28.58
2017-12-06T11:43:56.386Z,26.42
2017-12-06T11:46:22.642Z,29.15
2017-12-06T11:48:48.902Z,27.15
2017-12-06T11:51:15.198Z,27.45
2017-12-06T11:53:42.199Z,24.77
2017-12-06T11:56:08.501Z,33.35
2017-12-06T11:58:34.778Z,27.20
2017-12-06T12:01:01.056Z,35.28
2017-12-06T12:03:27.348Z,26.87
2017-12-06T12:05:54.365Z,28.05
2017-12-06T12:08:20.639Z,34.58
2017-12-06T12:10:46.920Z,31.85
2017-12-06T12:13:13.180Z,30.27
2017-12-06T12:15:40.220Z,27.65
2017-12-06T12:18:07.219Z,28.52
2017-12-06T12:20:33.521Z,30.00
2017-12-06T12:22:59.806Z,39.25
2017-12-06T12:25:26.037Z,43.13
2017-12-06T12:27:52.351Z,33.83
2017-12-06T12:30:18.607Z,43.47
2017-12-06T12:32:45.600Z,43.13
2017-12-06T12:35:11.850Z,29.52
2017-12-06T12:37:38.122Z,30.05
2017-12-06T12:40:04.560Z,26.92
2017-12-06T12:42:34.411Z,26.55
2017-12-06T12:45:00.708Z,28.23
2017-12-06T12:47:26.998Z,23.58
2017-12-06T12:49:54.051Z,26.62
2017-12-06T12:52:21.101Z,26.15
2017-12-06T12:54:48.135Z,29.15
2017-12-06T12:57:15.162Z,27.55
2017-12-06T12:59:42.228Z,24.10
2017-12-06T13:02:09.238Z,34.03
2017-12-06T13:04:35.511Z,29.60
2017-12-06T13:07:02.587Z,25.58
2017-12-06T13:09:28.863Z,39.35
2017-12-06T13:11:55.152Z,30.42
2017-12-06T13:14:21.451Z,31.42
2017-12-06T13:16:47.732Z,34.33
2017-12-06T13:19:14.044Z,35.08
2017-12-06T13:21:41.060Z,29.27
2017-12-06T13:24:07.347Z,35.38
2017-12-06T13:26:33.717Z,31.98
2017-12-06T13:29:01.429Z,35.63
2017-12-06T13:31:27.753Z,30.88
2017-12-06T13:33:54.096Z,33.40
2017-12-06T13:36:20.392Z,34.20
2017-12-06T13:38:46.876Z,28.42
2017-12-06T13:41:13.175Z,30.67
2017-12-06T13:43:39.456Z,29.63
2017-12-06T13:46:05.761Z,31.52
2017-12-06T13:48:32.847Z,30.85
2017-12-06T13:50:59.126Z,30.02
2017-12-06T13:53:26.158Z,37.95
2017-12-06T13:55:52.481Z,30.95
2017-12-06T13:58:19.072Z,32.88
2017-12-06T14:00:45.397Z,39.60
2017-12-06T14:03:11.682Z,36.00
2017-12-06T14:05:38.025Z,36.05
2017-12-06T14:08:04.338Z,35.83
2017-12-06T14:10:30.630Z,33.42
2017-12-06T14:12:57.233Z,37.92
2017-12-06T14:15:23.524Z,34.97
2017-12-06T14:17:49.862Z,34.55
2017-12-06T14:20:16.934Z,39.03
2017-12-06T14:22:43.243Z,35.17
2017-12-06T14:25:09.580Z,39.63
2017-12-06T14:27:36.856Z,34.67
2017-12-06T14:30:03.228Z,39.33
2017-12-06T14:32:29.559Z,36.90
2017-12-06T14:34:55.915Z,41.17
2017-12-06T14:37:22.253Z,32.10
2017-12-06T14:39:48.619Z,34.58
2017-12-06T14:42:14.914Z,32.92
2017-12-06T14:44:42.043Z,38.53
2017-12-06T14:47:08.376Z,35.70
2017-12-06T14:49:35.458Z,35.50
2017-12-06T14:52:01.806Z,35.53
2017-12-06T14:54:28.144Z,40.67
2017-12-06T14:56:54.484Z,41.05
2017-12-06T14:59:20.778Z,34.97
2017-12-06T15:01:47.086Z,39.15
2017-12-06T15:04:13.369Z,35.30
2017-12-06T15:06:39.655Z,40.08
2017-12-06T15:09:06.015Z,38.28
2017-12-06T15:11:32.319Z,42.42
2017-12-06T15:13:58.637Z,42.47
2017-12-06T15:16:24.970Z,38.97
2017-12-06T15:18:51.282Z,36.60
2017-12-06T15:21:17.600Z,39.25
2017-12-06T15:23:44.701Z,35.58
2017-12-06T15:26:11.203Z,37.47
2017-12-06T15:28:37.531Z,35.45
2017-12-06T15:31:03.849Z,38.78
2017-12-06T15:33:30.212Z,36.60
2017-12-06T15:35:56.523Z,34.30
2017-12-06T15:38:22.882Z,35.47
2017-12-06T15:40:49.221Z,35.28
2017-12-06T15:43:15.504Z,42.62
2017-12-06T15:45:41.826Z,38.53
2017-12-06T15:48:08.082Z,41.75
2017-12-06T15:50:34.429Z,42.38
2017-12-06T15:53:00.768Z,42.80
2017-12-06T15:55:27.093Z,33.53
2017-12-06T15:57:53.884Z,52.05
2017-12-06T16:00:20.369Z,43.30
2017-12-06T16:02:46.661Z,40.20
2017-12-06T16:05:12.988Z,38.38
2017-12-06T16:07:39.272Z,46.42
2017-12-06T16:10:06.395Z,34.75
2017-12-06T16:12:32.677Z,49.22
2017-12-06T16:14:58.994Z,36.38
2017-12-06T16:17:25.344Z,46.65
2017-12-06T16:19:51.633Z,42.90
2017-12-06T16:22:18.709Z,37.17
2017-12-06T16:24:45.030Z,38.58
2017-12-06T16:27:11.351Z,43.35
2017-12-06T16:29:38.467Z,47.00
2017-12-06T16:32:04.813Z,46.08
2017-12-06T16:34:31.887Z,43.85
2017-12-06T16:37:10.642Z,41.95
2017-12-06T16:39:36.959Z,43.95
2017-12-06T16:42:03.288Z,43.13
2017-12-06T16:44:29.680Z,52.15
2017-12-06T16:46:56.773Z,44.22
2017-12-06T16:49:23.122Z,44.65
2017-12-06T16:51:49.404Z,41.85
2017-12-06T16:54:15.728Z,42.40
2017-12-06T16:56:42.056Z,41.80
2017-12-06T16:59:08.360Z,41.13
2017-12-06T17:01:35.478Z,50.72
2017-12-06T17:04:02.580Z,42.97
2017-12-06T17:06:28.923Z,43.47
2017-12-06T17:08:55.305Z,45.22
2017-12-06T17:11:21.627Z,36.65
2017-12-06T17:13:47.987Z,41.20
2017-12-06T17:16:15.056Z,41.47
2017-12-06T17:18:41.453Z,39.15
2017-12-06T17:21:08.806Z,44.63
2017-12-06T17:23:35.931Z,57.13
2017-12-06T17:26:03.063Z,47.78
2017-12-06T17:31:49.438Z,42.13
2017-12-06T17:34:15.786Z,39.20
2017-12-06T17:36:44.829Z,42.42
2017-12-06T17:39:11.290Z,43.65
2017-12-06T17:41:37.662Z,45.63
2017-12-06T17:44:03.984Z,59.10
2017-12-06T17:46:30.294Z,56.37
2017-12-06T17:48:56.742Z,51.78
2017-12-06T17:51:22.994Z,50.42
2017-12-06T17:53:49.326Z,48.40
2017-12-06T17:56:15.674Z,42.53
2017-12-06T17:58:42.752Z,50.72
2017-12-06T18:01:09.133Z,45.03
2017-12-06T18:03:35.479Z,50.58
2017-12-06T18:06:01.824Z,39.88
2017-12-06T18:08:28.983Z,46.63
2017-12-06T18:10:55.410Z,47.72
2017-12-06T18:13:21.800Z,53.42
2017-12-06T18:15:48.152Z,42.35
2017-12-06T18:18:14.565Z,49.60
2017-12-06T18:20:41.699Z,56.28
2017-12-06T18:23:08.062Z,50.75
2017-12-06T18:25:35.138Z,44.78
2017-12-06T18:28:01.524Z,50.42
2017-12-06T18:30:28.669Z,58.63
2017-12-06T18:32:54.988Z,46.25
2017-12-06T18:35:22.186Z,44.75
2017-12-06T18:37:48.519Z,41.90
2017-12-06T18:40:14.931Z,49.85
2017-12-06T18:42:42.041Z,53.03
2017-12-06T18:45:09.246Z,46.65
2017-12-06T18:47:35.760Z,53.70
2017-12-06T18:50:02.863Z,45.65
2017-12-06T18:52:29.244Z,54.80
2017-12-06T18:54:56.377Z,48.15
2017-12-06T18:57:23.488Z,49.47
2017-12-06T18:59:49.891Z,51.80
2017-12-06T19:02:16.250Z,43.67
2017-12-06T19:04:43.653Z,43.33
2017-12-06T19:07:10.104Z,41.22
2017-12-06T19:09:36.442Z,36.05
2017-12-06T19:12:02.837Z,40.85
2017-12-06T19:14:29.316Z,40.45
2017-12-06T19:16:56.660Z,45.97
2017-12-06T19:19:23.044Z,46.25
2017-12-06T19:21:50.220Z,47.35
2017-12-06T19:24:16.608Z,44.13
2017-12-06T19:26:43.736Z,53.53
2017-12-06T19:29:10.139Z,44.47
2017-12-06T19:31:36.514Z,43.65
2017-12-06T19:34:02.946Z,39.03
2017-12-06T19:36:29.317Z,46.45
2017-12-06T19:38:55.759Z,41.45
2017-12-06T19:41:22.196Z,49.38
2017-12-06T19:43:48.579Z,46.28
2017-12-06T19:46:15.713Z,46.35
2017-12-06T19:48:42.120Z,39.85
2017-12-06T19:51:08.465Z,48.33
2017-12-06T19:53:34.899Z,41.78
2017-12-06T19:56:01.297Z,48.15
2017-12-06T19:58:27.727Z,49.53
2017-12-06T20:00:54.089Z,48.17
2017-12-06T20:03:20.479Z,46.33
2017-12-06T20:05:46.841Z,61.00
2017-12-06T20:08:13.194Z,47.67
2017-12-06T20:10:39.607Z,48.55
2017-12-06T20:13:06.013Z,53.13
2017-12-06T20:15:32.416Z,40.40
2017-12-06T20:17:58.841Z,46.55
2017-12-06T20:20:25.259Z,54.10
2017-12-06T20:22:52.415Z,50.92
2017-12-06T20:25:20.771Z,55.22
2017-12-06T20:27:48.054Z,44.80
2017-12-06T20:30:15.200Z,58.78
2017-12-06T20:32:41.596Z,48.40
2017-12-06T20:35:08.858Z,51.33
2017-12-06T20:37:36.229Z,50.08
2017-12-06T20:40:06.115Z,49.20
2017-12-06T20:42:33.484Z,50.97
2017-12-06T20:45:02.428Z,58.80
2017-12-06T20:47:28.800Z,51.55
2017-12-06T20:49:55.948Z,50.22
2017-12-06T20:52:22.340Z,47.25
2017-12-06T20:54:48.763Z,67.37
2017-12-06T20:57:15.154Z,54.55
2017-12-06T20:59:42.231Z,54.85
2017-12-06T21:02:08.592Z,61.25
2017-12-06T21:04:34.985Z,55.42
2017-12-06T21:07:01.311Z,55.65
2017-12-06T21:09:27.709Z,60.80
2017-12-06T21:11:54.899Z,56.20
2017-12-06T21:14:21.283Z,63.08
2017-12-06T21:16:48.379Z,55.10
2017-12-06T21:19:14.769Z,62.03
2017-12-06T21:21:41.873Z,48.47
2017-12-06T21:24:08.199Z,52.42
2017-12-06T21:26:34.530Z,50.63
2017-12-06T21:29:00.854Z,50.85
2017-12-06T21:31:27.196Z,47.38
2017-12-06T21:33:53.523Z,56.88
2017-12-06T21:36:19.888Z,54.55
2017-12-06T21:38:46.971Z,54.25
2017-12-06T21:41:13.281Z,54.47
2017-12-06T21:43:40.346Z,44.67
2017-12-06T21:46:06.740Z,52.20
2017-12-06T21:48:33.756Z,57.28
2017-12-06T21:51:00.058Z,51.72
2017-12-06T21:53:26.356Z,52.88
2017-12-06T21:55:52.711Z,49.67
2017-12-06T21:58:19.011Z,60.35
2017-12-06T22:00:46.057Z,52.47
2017-12-06T22:03:12.370Z,63.03
2017-12-06T22:05:39.421Z,51.15
2017-12-06T22:08:06.446Z,52.92
2017-12-06T22:10:32.700Z,67.85
2017-12-06T22:12:59.746Z,56.60
2017-12-06T22:15:26.747Z,59.17
2017-12-06T22:17:53.024Z,59.75
2017-12-06T22:20:20.030Z,58.58
2017-12-06T22:22:46.287Z,58.83
2017-12-06T22:25:13.279Z,55.83
2017-12-06T22:27:39.573Z,55.30
2017-12-06T22:30:05.866Z,58.20
2017-12-06T22:32:32.136Z,59.75
2017-12-06T22:34:58.413Z,60.92
2017-12-06T22:37:24.652Z,67.90
2017-12-06T22:39:51.064Z,59.25
2017-12-06T22:42:17.344Z,60.03
2017-12-06T22:44:55.826Z,62.47
2017-12-06T22:47:22.144Z,60.63
2017-12-06T22:49:48.400Z,56.92
2017-12-06T22:52:15.408Z,58.87
2017-12-06T22:54:41.666Z,56.92
2017-12-06T22:57:08.703Z,68.30
2017-12-06T22:59:34.952Z,55.90
2017-12-06T23:02:01.939Z,57.70
2017-12-06T23:04:28.239Z,60.50
2017-12-06T23:06:54.530Z,54.03
2017-12-06T23:09:20.821Z,58.08
2017-12-06T23:11:47.101Z,61.72
2017-12-06T23:14:14.104Z,62.42
2017-12-06T23:16:40.402Z,62.28
2017-12-06T23:19:06.660Z,67.18
2017-12-06T23:21:32.913Z,57.50
2017-12-06T23:23:59.181Z,65.97
2017-12-06T23:26:25.473Z,54.20
2017-12-06T23:28:51.769Z,64.78
2017-12-06T23:31:18.095Z,66.62
2017-12-06T23:33:44.376Z,64.05
2017-12-06T23:36:11.400Z,65.50
2017-12-06T23:38:37.756Z,64.97
2017-12-06T23:41:04.054Z,68.25
2017-12-06T23:43:30.324Z,67.30
2017-12-06T23:45:56.563Z,62.75
2017-12-06T23:48:22.826Z,67.15
2017-12-06T23:50:49.104Z,56.47
2017-12-06T23:53:15.348Z,54.00
2017-12-06T23:55:41.878Z,59.63
2017-12-06T23:58:08.124Z,58.83
